Flight Track Log - Related Links

Times and Time Zones

All times are in EDT time to prevent confusion due to time zone crossing. See the ASQ5685 flight status page for this flight to view local times or setup timezone preferences in your user account.

Time Position Orientation Groundspeed Altitude Reporting Facility
EDT Latitude Longitude Course Direction KTS MPH feet Rate Location/Type
Wed 09:29:27 33.6333 -84.3500 48° Northeast 235 270 2,600  Level Atlanta TRACON
Wed 09:30:33 33.6333 -84.2500 90° East 285 328 5,100 2,333 Climbing Atlanta TRACON
Wed 09:31:00 33.8516 -84.1725 73° East  Level Estimated
Wed 09:31:33 33.6500 -84.1500 79° East 302 348 7,500  Level Atlanta TRACON
Wed 09:32:00 33.9232 -84.0871 54° Northeast  Level Estimated
Wed 09:32:54 33.7150 -84.0389 55° Northeast 312 359 10,500  Level Atlanta Center
Wed 09:33:00 33.9012 -83.9687 103° East  Level FlightAware Approximate
Wed 09:33:54 33.7733 -83.9539 50° Northeast 319 367 11,600  Level Atlanta Center
Wed 09:34:00 33.9734 -83.8840 48° Northeast  Level Estimated
Wed 09:34:54 33.8358 -83.8586 52° Northeast 348 400 13,200  Level Atlanta Center
Wed 09:35:54 33.9025 -83.7561 52° Northeast 360 414 14,000 850 Climbing Atlanta Center
Wed 09:36:54 33.9711 -83.6481 53° Northeast 389 448 14,900 1,300 Climbing Atlanta Center
Wed 09:37:54 34.0353 -83.5425 54° Northeast 394 453 16,600 1,450 Climbing Atlanta Center
Wed 09:38:54 34.1039 -83.4392 51° Northeast 389 448 17,800 1,100 Climbing Atlanta Center
Wed 09:39:54 34.1700 -83.3358 52° Northeast 389 448 18,800 1,000 Climbing Atlanta Center
Wed 09:40:54 34.2278 -83.2397 54° Northeast 389 448 19,800 1,150 Climbing Atlanta Center
Wed 09:41:54 34.2939 -83.1361 52° Northeast 389 448 21,100 1,100 Climbing Atlanta Center
Wed 09:42:54 34.3536 -83.0297 56° Northeast 389 448 22,000 900 Climbing Atlanta Center
Wed 09:43:54 34.4217 -82.9233 52° Northeast 389 448 22,900 900 Climbing Atlanta Center
Wed 09:44:54 34.4853 -82.8167 54° Northeast 389 448 23,800 850 Climbing Atlanta Center
Wed 09:45:54 34.5550 -82.7097 52° Northeast 394 453 24,600 750 Climbing Atlanta Center
Wed 09:46:54 34.6247 -82.6000 52° Northeast 399 459 25,300 700 Climbing Atlanta Center
Wed 09:47:54 34.6986 -82.4850 52° Northeast 399 459 26,000 700 Climbing Atlanta Center
Wed 09:48:54 34.7658 -82.3675 55° Northeast 404 465 26,700 700 Climbing Atlanta Center
Wed 09:49:54 34.8353 -82.2547 53° Northeast 404 465 27,400 650 Climbing Atlanta Center
Wed 09:50:54 34.9025 -82.1419 54° Northeast 409 471 28,000 550 Climbing Atlanta Center
Wed 09:51:54 34.9758 -82.0311 51° Northeast 422 486 28,500 500 Climbing Atlanta Center
Wed 09:52:54 35.0447 -81.9128 55° Northeast 422 486 29,000 250 Climbing Atlanta Center
Wed 09:53:54 35.1092 -81.7867 58° Northeast 428 493 29,000  Level Atlanta Center
Wed 09:54:54 35.1778 -81.6578 57° Northeast 446 513 29,000  Level Atlanta Center
Wed 09:55:54 35.2439 -81.5286 58° Northeast 446 513 29,000  Level Atlanta Center
Wed 09:56:54 35.3122 -81.3994 57° Northeast 446 513 29,000  Level Atlanta Center
Wed 09:57:54 35.3783 -81.2725 57° Northeast 446 513 29,000  Level Atlanta Center
Wed 09:58:54 35.4422 -81.1428 59° Northeast 446 513 29,000 50 Level Atlanta Center
Wed 09:59:54 35.5100 -81.0156 57° Northeast 446 513 29,100 300 Climbing Atlanta Center
Wed 10:00:54 35.5778 -80.8878 57° Northeast 446 513 29,600 500 Climbing Atlanta Center
Wed 10:01:54 35.6453 -80.7600 57° Northeast 446 513 30,100 450 Climbing Atlanta Center
Wed 10:02:54 35.7028 -80.6478 58° Northeast 446 513 30,500 450 Climbing Atlanta Center
Wed 10:03:54 35.7739 -80.5067 58° Northeast 439 505 31,000 250 Climbing Atlanta Center
Wed 10:04:54 35.8331 -80.3914 58° Northeast 439 505 31,000  Level Atlanta Center
Wed 10:07:19 35.9953 -80.0642 58° Northeast 442 509 31,000  Level Washington Center
Wed 10:08:19 36.0597 -79.9547 54° Northeast 437 503 31,000  Level Washington Center
Wed 10:09:20 36.1311 -79.8303 55° Northeast 437 503 31,000  Level Washington Center
Wed 10:10:18 36.2092 -79.6878 56° Northeast 451 519 31,000 -303 Level Washington Center
Wed 10:11:19 36.2778 -79.5728 53° Northeast 451 519 30,400 -787 Descending Washington Center
Wed 10:12:20 36.3550 -79.4400 54° Northeast 459 528 29,400 -1,017 Descending Washington Center
Wed 10:13:17 36.4264 -79.2989 58° Northeast 469 540 28,400 -1,119 Descending Washington Center
Wed 10:14:18 36.5122 -79.1453 55° Northeast 485 558 27,200 -992 Descending Washington Center
Wed 10:15:18 36.5825 -79.0269 53° Northeast 480 552 26,400 -893 Descending Washington Center
Wed 10:16:19 36.6594 -78.8906 55° Northeast 475 547 25,400 -689 Descending Washington Center
Wed 10:17:20 36.7297 -78.7536 57° Northeast 475 547 25,000 -198 Descending Washington Center
Wed 10:18:20 36.8019 -78.6242 55° Northeast 465 535 25,000 -407 Level Washington Center
Wed 10:19:18 36.8986 -78.5189 41° Northeast 453 521 24,200 -915 Descending Washington Center
Wed 10:20:18 37.0072 -78.4294 33° Northeast 453 521 23,200 -1,041 Descending Washington Center
Wed 10:21:19 37.1303 -78.3325 32° Northeast 470 541 22,100 -590 Descending Washington Center
Wed 10:22:20 37.2347 -78.2422 35° Northeast 464 534 22,000 -50 Descending Washington Center
Wed 10:23:20 37.3344 -78.1619 33° Northeast 445 512 22,000  Level Washington Center
Wed 10:24:18 37.4278 -78.0842 33° Northeast 421 484 22,000  Level Washington Center
Wed 10:25:18 37.5256 -78.0008 34° Northeast 415 478 22,000  Level Washington Center
Wed 10:26:19 37.6189 -77.9225 34° Northeast 410 472 22,000 -639 Level Washington Center
Wed 10:27:20 37.7161 -77.8442 33° Northeast 410 472 20,700 -1,966 Descending Washington Center
Wed 10:28:18 37.8181 -77.7553 35° Northeast 419 482 18,100 -2,471 Descending Washington Center
Wed 10:29:19 37.9153 -77.6739 33° Northeast 425 489 15,800 -2,380 Descending Washington Center
Wed 10:30:19 38.0042 -77.5972 34° Northeast 408 470 13,300 -2,542 Descending Washington Center
Wed 10:31:17 38.0908 -77.5256 33° Northeast 382 440 10,800 -1,650 Descending Washington Center
Wed 10:32:19 38.1669 -77.4589 35° Northeast 353 406 10,000 -672 Descending Washington Center
Wed 10:33:31 38.2533 -77.4031 27° Northeast 312 359 9,300 -767 Descending Washington Center
Wed 10:34:32 38.3269 -77.3597 25° Northeast 290 334 8,300 -1,059 Descending Washington Center
Wed 10:35:30 38.4042 -77.3564 North 276 318 7,200 -1,068 Descending Washington Center
Wed 10:36:30 38.4814 -77.3606 358° North 270 311 6,200 -942 Descending Washington Center
Wed 10:37:31 38.5583 -77.3653 357° North 270 311 5,300 -843 Descending Washington Center
Wed 10:38:31 38.6378 -77.3644 360° North 270 311 4,500 -750 Descending Washington Center
Wed 10:39:15 38.7000 -77.3667 358° North 276 318 4,000 -286 Descending Potomac TRACON
Wed 10:40:16 38.7667 -77.3500 11° North 276 318 4,000  Level Potomac TRACON
Wed 10:41:16 38.8500 -77.3500 360° North 276 318 4,000  Level Potomac TRACON
Wed 10:42:16 38.9167 -77.3500 360° North 276 318 4,000  Level Potomac TRACON
Wed 10:43:22 39.0167 -77.3500 360° North 275 316 4,000  Level Potomac TRACON
Wed 10:44:16 39.0833 -77.3500 360° North 265 305 4,000  Level Potomac TRACON
Wed 10:45:16 39.1500 -77.3500 360° North 229 264 4,000 -347 Level Potomac TRACON
Wed 10:46:17 39.2167 -77.3333 11° North 235 270 3,300 -500 Descending Potomac TRACON
Wed 10:47:16 39.2500 -77.4000 303° West 235 270 3,000 -200 Descending Potomac TRACON
Wed 10:48:17 39.2000 -77.4333 207° Southwest 208 239 2,900 -313 Descending Potomac TRACON
Wed 10:49:11 39.1500 -77.4333 180° South 177 204 2,400 -474 Descending Potomac TRACON
Wed 10:50:11 39.1000 -77.4333 180° South 179 206 2,000 -200 Descending Potomac TRACON
Wed 10:51:11 39.0500 -77.4333 180° South 168 193 2,000 -211 Level Potomac TRACON
Wed 10:52:05 39.0167 -77.4333 180° South 148 170 1,600 -626 Descending Potomac TRACON
Wed 10:53:06 38.9833 -77.4333 180° South 139 160 800 -787 Descending Potomac TRACON
Wed 10:55:00 38.9474 -77.4599 191° South  Level Estimated
Wed 11:02:00 38.9474 -77.4599 191° South  Level Estimated
Wed 11:03:00 38.9474 -77.4599 191° South  Level Estimated

Login

Don't have an account? Register now (free) for customized features, flight alerts, and more!